createdAt,value
2023-03-29T00:04:03.003Z,1.53
2023-03-29T00:09:06.367Z,1.60
2023-03-29T00:14:09.350Z,1.66
2023-03-29T00:19:12.158Z,1.67
2023-03-29T00:24:15.328Z,1.73
2023-03-29T00:29:18.043Z,1.83
2023-03-29T00:34:21.447Z,1.92
2023-03-29T00:39:24.857Z,1.97
2023-03-29T00:44:54.090Z,1.96
2023-03-29T00:50:02.014Z,2.01
2023-03-29T00:55:10.996Z,1.94
2023-03-29T01:00:21.257Z,2.13
2023-03-29T01:05:29.934Z,2.24
2023-03-29T01:11:19.966Z,2.32
2023-03-29T01:16:23.532Z,2.44
2023-03-29T01:21:33.787Z,2.55
2023-03-29T01:26:58.487Z,2.67
2023-03-29T01:32:09.342Z,2.78
2023-03-29T01:37:34.771Z,2.88
2023-03-29T01:42:44.932Z,3.01
2023-03-29T01:48:23.163Z,3.16
2023-03-29T01:53:47.984Z,3.32
2023-03-29T01:58:53.215Z,3.47
2023-03-29T02:03:56.899Z,3.59
2023-03-29T02:09:00.467Z,3.71
2023-03-29T02:14:03.956Z,3.89
2023-03-29T02:19:08.257Z,4.03
2023-03-29T02:24:13.669Z,4.18
2023-03-29T02:29:16.733Z,4.34
2023-03-29T02:34:24.905Z,4.39
2023-03-29T02:39:29.000Z,4.43
2023-03-29T02:44:33.511Z,4.52
2023-03-29T02:49:36.609Z,4.63
2023-03-29T02:54:43.428Z,4.78
2023-03-29T02:59:46.347Z,4.92
2023-03-29T03:04:49.771Z,5.07
2023-03-29T03:09:53.088Z,5.13
2023-03-29T03:14:56.080Z,5.25
2023-03-29T03:19:59.364Z,5.42
2023-03-29T03:25:03.641Z,5.51
2023-03-29T03:30:07.203Z,5.66
2023-03-29T03:35:28.161Z,5.84
2023-03-29T03:40:30.979Z,5.87
2023-03-29T03:45:34.211Z,6.10
2023-03-29T03:50:56.671Z,6.21
2023-03-29T03:56:02.538Z,6.35
2023-03-29T04:01:10.308Z,6.36
2023-03-29T04:06:20.199Z,6.55
2023-03-29T04:11:42.759Z,6.70
2023-03-29T04:16:46.913Z,6.82
2023-03-29T04:22:09.845Z,6.99
2023-03-29T04:27:13.437Z,7.12
2023-03-29T04:32:16.567Z,7.22
2023-03-29T04:37:36.336Z,7.36
2023-03-29T04:42:39.477Z,7.50
2023-03-29T04:47:42.526Z,7.65
2023-03-29T04:52:52.300Z,7.65
2023-03-29T04:57:55.931Z,7.78
2023-03-29T05:03:13.798Z,7.87
2023-03-29T05:08:42.797Z,7.99
2023-03-29T05:14:02.707Z,8.10
2023-03-29T05:19:09.603Z,8.24
2023-03-29T05:24:17.012Z,8.34
2023-03-29T05:29:33.234Z,8.47
2023-03-29T05:34:55.251Z,8.60
2023-03-29T05:40:05.703Z,8.69
2023-03-29T05:45:16.452Z,8.76
2023-03-29T05:50:19.725Z,8.90
2023-03-29T05:55:24.377Z,9.19
2023-03-29T06:00:28.483Z,9.49
2023-03-29T06:05:42.530Z,9.64
2023-03-29T06:10:45.875Z,10.29
2023-03-29T06:16:08.987Z,10.84
2023-03-29T06:21:12.799Z,11.24
2023-03-29T06:26:16.107Z,11.42
2023-03-29T06:31:20.226Z,11.60
2023-03-29T06:36:26.293Z,11.64
2023-03-29T06:41:29.402Z,11.82
2023-03-29T06:46:55.014Z,11.90
2023-03-29T06:51:57.955Z,11.97
2023-03-29T06:57:05.825Z,12.09
2023-03-29T07:02:12.823Z,12.17
2023-03-29T07:07:53.900Z,12.21
2023-03-29T07:13:17.664Z,12.08
2023-03-29T07:18:21.358Z,11.98
2023-03-29T07:23:24.268Z,12.22
2023-03-29T07:28:27.694Z,12.36
2023-03-29T07:33:30.984Z,12.50
2023-03-29T07:38:38.354Z,12.58
2023-03-29T07:43:50.445Z,12.60
2023-03-29T07:48:57.635Z,12.69
2023-03-29T07:54:00.657Z,12.80
2023-03-29T07:59:21.985Z,12.88
2023-03-29T08:04:34.333Z,12.89
2023-03-29T08:09:52.073Z,12.99
2023-03-29T08:14:58.326Z,13.02
2023-03-29T08:20:11.357Z,13.05
2023-03-29T08:25:17.034Z,13.13
2023-03-29T08:30:24.454Z,13.07
2023-03-29T08:35:28.038Z,13.09
2023-03-29T08:40:55.777Z,13.18
2023-03-29T08:46:03.477Z,13.20
2023-03-29T08:51:24.997Z,13.27
2023-03-29T08:56:31.443Z,13.25
2023-03-29T09:01:53.837Z,13.29
2023-03-29T09:06:56.680Z,13.33
2023-03-29T09:12:41.283Z,13.37
2023-03-29T09:17:59.348Z,13.39
2023-03-29T09:23:27.476Z,13.41
2023-03-29T09:29:09.723Z,13.34
2023-03-29T09:34:36.541Z,13.43
2023-03-29T09:39:44.194Z,13.38
2023-03-29T09:44:54.360Z,13.26
2023-03-29T09:50:19.825Z,13.28
2023-03-29T09:55:36.751Z,13.38
2023-03-29T10:01:16.052Z,13.36
2023-03-29T10:06:21.737Z,13.28
2023-03-29T10:11:32.227Z,13.24
2023-03-29T10:16:39.724Z,13.17
2023-03-29T10:21:42.693Z,13.10
2023-03-29T10:26:45.588Z,13.05
2023-03-29T10:31:48.355Z,12.98
2023-03-29T10:37:09.605Z,12.90
2023-03-29T10:42:17.870Z,12.83
2023-03-29T10:47:21.897Z,12.71
2023-03-29T10:52:25.303Z,12.68
2023-03-29T10:58:17.264Z,12.57
2023-03-29T11:03:57.355Z,12.61
2023-03-29T11:09:03.337Z,12.44
2023-03-29T11:14:14.938Z,12.37
2023-03-29T11:19:39.003Z,12.23
2023-03-29T11:24:44.569Z,12.19
2023-03-29T11:29:50.763Z,12.03
2023-03-29T11:35:08.671Z,11.88
2023-03-29T11:40:15.678Z,11.78
2023-03-29T11:45:27.615Z,11.62
2023-03-29T11:50:43.031Z,11.45
2023-03-29T11:55:46.432Z,11.28
2023-03-29T12:00:52.731Z,11.18
2023-03-29T12:06:04.867Z,11.02
2023-03-29T12:11:24.717Z,10.85
2023-03-29T12:16:47.825Z,10.79
2023-03-29T12:21:51.809Z,10.68
2023-03-29T12:27:01.851Z,10.50
2023-03-29T12:32:23.254Z,10.21
2023-03-29T12:38:02.043Z,9.96
2023-03-29T12:43:38.051Z,9.91
2023-03-29T12:48:58.652Z,9.74
2023-03-29T12:54:21.508Z,9.52
2023-03-29T12:59:39.244Z,9.46
2023-03-29T13:04:44.741Z,9.46
2023-03-29T13:09:47.631Z,9.49
2023-03-29T13:14:59.787Z,9.51
2023-03-29T13:20:09.835Z,9.42
2023-03-29T13:25:50.214Z,9.28
2023-03-29T13:30:53.106Z,9.14
2023-03-29T13:36:06.952Z,9.01
2023-03-29T13:41:32.811Z,8.97
2023-03-29T13:46:42.902Z,8.95
2023-03-29T13:52:03.254Z,8.84
2023-03-29T13:57:14.283Z,8.74
2023-03-29T14:02:33.035Z,8.50
2023-03-29T14:07:38.666Z,8.33
2023-03-29T14:12:42.066Z,8.39
2023-03-29T14:17:45.081Z,7.57
2023-03-29T14:22:48.118Z,6.01
2023-03-29T14:27:50.956Z,4.61
2023-03-29T14:32:54.270Z,3.91
2023-03-29T14:37:57.577Z,3.25
2023-03-29T14:43:05.797Z,2.92
2023-03-29T14:48:11.863Z,2.64
2023-03-29T14:53:20.283Z,2.27
2023-03-29T14:58:28.890Z,1.70
2023-03-29T15:03:32.299Z,1.39
2023-03-29T15:08:38.180Z,0.99
2023-03-29T15:13:42.788Z,0.72
2023-03-29T15:18:46.744Z,0.47
2023-03-29T15:24:19.864Z,0.31
2023-03-29T15:29:26.744Z,0.05
2023-03-29T15:34:33.306Z,-0.24
2023-03-29T15:39:38.398Z,-0.20
2023-03-29T15:44:41.589Z,-0.45
2023-03-29T15:49:44.379Z,-0.54
2023-03-29T15:54:47.077Z,-0.68
2023-03-29T15:59:49.918Z,-0.79
2023-03-29T16:04:53.818Z,-0.94
2023-03-29T16:09:56.925Z,-0.92
2023-03-29T16:14:59.675Z,-1.03
2023-03-29T16:20:02.617Z,-1.18
2023-03-29T16:25:12.004Z,-1.31
2023-03-29T16:30:15.462Z,-1.51
2023-03-29T16:35:27.279Z,-1.59
2023-03-29T16:40:29.970Z,-1.80
2023-03-29T16:45:32.791Z,-1.94
2023-03-29T16:50:35.587Z,-2.02
2023-03-29T16:55:38.514Z,-2.12
2023-03-29T17:00:41.431Z,-2.14
2023-03-29T17:06:02.911Z,-2.21
2023-03-29T17:11:09.062Z,-2.23
2023-03-29T17:16:11.945Z,-2.42
2023-03-29T17:21:14.883Z,-2.43
2023-03-29T17:26:17.872Z,-2.48
2023-03-29T17:31:20.976Z,-2.56
2023-03-29T17:36:25.800Z,-2.70
2023-03-29T17:41:30.818Z,-2.74
2023-03-29T17:46:34.585Z,-2.75
2023-03-29T17:51:37.390Z,-2.80
2023-03-29T17:56:40.535Z,-2.83
2023-03-29T18:01:43.593Z,-2.94
2023-03-29T18:06:46.393Z,-2.99
2023-03-29T18:11:49.144Z,-3.03
2023-03-29T18:16:51.973Z,-3.04
2023-03-29T18:21:55.025Z,-3.23
2023-03-29T18:26:58.035Z,-3.30
2023-03-29T18:32:03.219Z,-3.48
2023-03-29T18:37:06.432Z,-3.64
2023-03-29T18:42:11.629Z,-3.76
2023-03-29T18:47:14.962Z,-3.76
2023-03-29T18:52:17.695Z,-3.75
2023-03-29T18:57:20.751Z,-3.81
2023-03-29T19:02:23.570Z,-3.86
2023-03-29T19:07:26.429Z,-3.81
2023-03-29T19:12:29.845Z,-3.85
2023-03-29T19:17:32.597Z,-3.83
2023-03-29T19:22:35.301Z,-4.00
2023-03-29T19:27:38.064Z,-4.10
2023-03-29T19:32:40.876Z,-4.16
2023-03-29T19:37:43.644Z,-4.06
2023-03-29T19:42:48.139Z,-4.00
2023-03-29T19:47:58.264Z,-3.91
2023-03-29T19:53:01.234Z,-3.94
2023-03-29T19:58:05.202Z,-3.84
2023-03-29T20:03:10.839Z,-3.86
2023-03-29T20:08:19.553Z,-3.90
2023-03-29T20:13:35.466Z,-4.04
2023-03-29T20:18:41.251Z,-4.10
2023-03-29T20:23:44.486Z,-4.23
2023-03-29T20:28:47.305Z,-4.28
2023-03-29T20:33:50.012Z,-4.41
2023-03-29T20:38:55.645Z,-4.52
2023-03-29T20:43:58.825Z,-4.57
2023-03-29T20:49:03.586Z,-4.46
2023-03-29T20:54:07.974Z,-4.59
2023-03-29T20:59:13.818Z,-4.91
2023-03-29T21:04:16.789Z,-4.89
2023-03-29T21:09:21.400Z,-4.95
2023-03-29T21:14:24.194Z,-4.93
2023-03-29T21:19:27.089Z,-4.92
2023-03-29T21:24:29.876Z,-5.07
2023-03-29T21:29:32.732Z,-5.21
2023-03-29T21:34:35.708Z,-5.34
2023-03-29T21:39:38.435Z,-5.32
2023-03-29T21:44:41.157Z,-5.41
2023-03-29T21:49:43.902Z,-5.50
2023-03-29T21:54:46.888Z,-5.52
2023-03-29T21:59:49.578Z,-5.55
2023-03-29T22:04:52.294Z,-5.61
2023-03-29T22:09:55.119Z,-5.63
2023-03-29T22:14:57.898Z,-5.73
2023-03-29T22:20:01.057Z,-5.81
2023-03-29T22:25:05.193Z,-5.84
2023-03-29T22:30:08.653Z,-5.89
2023-03-29T22:35:11.515Z,-5.90
2023-03-29T22:40:14.448Z,-5.97
2023-03-29T22:45:17.308Z,-5.95
2023-03-29T22:50:20.104Z,-6.11
2023-03-29T22:55:22.844Z,-6.07
2023-03-29T23:00:25.628Z,-6.08
2023-03-29T23:05:28.590Z,-6.09
2023-03-29T23:10:31.507Z,-6.11
2023-03-29T23:15:35.073Z,-6.25
2023-03-29T23:20:38.120Z,-6.27
2023-03-29T23:25:40.864Z,-6.41
2023-03-29T23:30:43.865Z,-6.37
2023-03-29T23:35:46.998Z,-6.58
2023-03-29T23:40:54.741Z,-6.45
2023-03-29T23:46:02.345Z,-6.50
2023-03-29T23:51:06.298Z,-6.54
2023-03-29T23:56:09.462Z,-6.49
